ADDS METAR Data INFO
IDs: Format: Raw Decoded Include TAF

Data at: 0735 UTC 21 Jul 2018

PASD 210730Z AUTO 06004KT 3SM BR OVC003 11/11 A3012 RMK AO2 PNO $
PASD 210656Z AUTO 00000KT 2 1/2SM BR OVC005 11/11 A3012 RMK AO2 VIS 2V5 RAE10 SLP202 T01110106 PNO $
PASD 210556Z AUTO 00000KT 5SM -RA BR OVC005 11/11 A3012 RMK AO2 RAB13 SLP201 6//// T01110106 10122 20111 53002 PNO $
PASD 210456Z AUTO 06004KT 10SM OVC005 12/11 A3011 RMK AO2 SLP199 T01170106 PNO $
PASD 210440Z AUTO 07005KT 10SM OVC005 11/11 A3011 RMK AO2 PNO $
PASD 210356Z AUTO 05004KT 5SM BR OVC005 11/11 A3011 RMK AO2 DZE05 SLP198 T01110106 PNO $
PASD 210311Z AUTO 06006KT 4SM BR OVC005 11/11 A3011 RMK AO2 DZE05 PNO $
PASD 210300Z 06005KT 1SM -DZ BR OVC005 12/11 A3011 RMK AO2 LAST PNO $
PASD 210256Z 05006KT 1SM -DZ BR OVC005 12/11 A3011 RMK AO2 SLP199 LAST 6//// T01170111 56002 PNO $
PASD 210158Z 04006KT 2SM -DZ BR BKN005 BKN011 OVC015 12/11 A3011 RMK AO2 VIS SE 10 BKN003 OVR NW APRCH PNO $
PASD 210156Z 05006KT 2SM -DZ BR BKN005 BKN011 OVC015 12/11 A3011 RMK AO2 DZB51 SLP199 VIS SE 10 BKN003 OVR NW APRCH T01170106 PNO $
PASD 210151Z 06007KT 2SM -DZ BR BKN005 BKN011 OVC015 12/11 A3011 RMK AO2 DZB51 VIS SE 10 BKN003 OVR NW APRCH PNO $
PASD 210147Z 06007KT 3SM BR BKN005 BKN011 OVC015 12/11 A3011 RMK AO2 VIS SE 10 BKN003 OVR NW APRCH PNO $
PASD 210103Z 06006KT 4SM BR SCT005 BKN012 OVC018 12/11 A3011 RMK AO2 VIS SE 10 BKN003 OVR NW APRCH PNO $
PASD 210056Z VRB04KT 4SM BR SCT005 BKN012 OVC018 12/11 A3011 RMK AO2 SLP200 VIS SE 10 BKN003 OVR NW APRCH T01220111 PNO $
PASD 210006Z VRB05KT 4SM BR SCT005 BKN012 OVC018 12/11 A3012 RMK AO2 VIS SE 10 BKN003 OVR NW APRCH PNO $
PASD 202356Z VRB06KT 4SM BR SCT008 BKN012 OVC018 12/11 A3012 RMK AO2 SLP201 VIS SE 10 BKN003 OVR NW APRCH 6//// T01220111 10122 20106 58002 PNO $
PASD 202354Z VRB03KT 4SM BR SCT008 BKN012 OVC018 12/11 A3012 RMK AO2 VIS SE 10 BKN003 OVR NW APRCH PNO $
PASD 202303Z VRB05KT 6SM BR SCT008 BKN012 OVC022 12/11 A3012 RMK AO2 VIS SE 10 BKN005 OVR NW APRCH PNO $
PASD 202300Z 12005KT 4SM BR SCT008 BKN012 OVC022 12/11 A3012 RMK AO2 VIS SE 10 BKN005 OVR NW APRCH PNO $
PASD 202254Z VRB05KT 4SM BR SCT008 BKN012 OVC022 12/11 A3012 RMK AO2 DZE22 VIS SE 10 BKN005 OVR NW APRCH PNO $
PASD 202252Z VRB03KT 5SM BR SCT008 BKN012 OVC024 12/11 A3012 RMK AO2 DZE22 VIS SE 10 BKN005 OVR NW APRCH PNO $
PASD 202214Z VRB04KT 4SM -DZ BR VCFG SCT003 BKN008 OVC025 12/11 A3012 RMK AO2 VCFG ALQDS VIS SE 10 BKN002 OVR NW APRCH PNO $
PASD 202201Z 00000KT 3SM -DZ BR VCFG BKN003 BKN006 OVC018 12/11 A3012 RMK AO2 VCFG ALQDS VIS SE 5 PNO $
PASD 202156Z 06005KT 3SM -DZ BR VCFG BKN003 BKN006 OVC018 12/11 A3012 RMK AO2 SLP203 VCFG ALQDS VIS SE 5 T01220111 PNO $
PASD 202152Z VRB06KT 3SM -DZ BR VCFG BKN003 BKN006 OVC021 12/11 A3012 RMK AO2 VCFG ALQDS VIS SE 5 PNO $
PASD 202123Z VRB05KT 3SM -DZ BR VCFG BKN003 BKN006 OVC021 12/11 A3012 RMK AO2 VCFG ALQDS VIS SE 8 PNO $
PASD 202058Z 06005KT 3SM -DZ BR VCFG BKN003 BKN006 OVC012 12/11 A3012 RMK AO2 VCFG ALQDS VIS SW 8 PNO $
PASD 202056Z 06007KT 3SM -DZ BR VCFG BKN003 BKN006 OVC012 12/11 A3012 RMK AO2 RAE41DZB41 SLP203 VCFG ALQDS VIS SW 8 6//// T01220111 55003 PNO $
PASD 202053Z 06006KT 3SM -DZ BR VCFG BKN003 BKN006 OVC012 12/11 A3012 RMK AO2 RAE41DZB41 VCFG ALQDS VIS SW 8 PNO $
PASD 202041Z 05005KT 3SM -DZ BR VCFG BKN003 BKN006 OVC012 12/11 A3012 RMK AO2 RAE41DZB41 VCFG ALQDS VIS SW 8 PNO $
PASD 202030Z 04004KT 3SM -RA BR VCFG BKN003 BKN006 OVC012 12/11 A3012 RMK AO2 VCFG ALQDS VIS SW 8 PNO $
PASD 201959Z VRB03KT 1SM -RA BR VCFG BKN002 BKN005 OVC009 12/11 A3012 RMK AO2 VCFG ALQDS PNO $
PASD 201958Z VRB03KT 1SM -RA BR VCFG BKN002 BKN005 OVC009 11/11 A3012 RMK AO2 PNO $
PASD 201956Z 07004KT 1SM -RA BR VCFG BKN002 BKN005 OVC009 11/11 A3012 RMK AO2 RAB44 SLP202 T01110106 PNO $
PASD 201950Z 06005KT 1SM -RA BR VCFG BKN002 BKN005 OVC009 11/11 A3012 RMK AO2 RAB44 PNO $
PASD 201945Z 06006KT 2SM -RA BR VCFG BKN003 BKN008 OVC012 11/11 A3012 RMK AO2 RAB44 PNO $
PASD 201944Z 06006KT 2SM -RA BR VCFG BKN003 BKN009 OVC015 11/11 A3012 RMK AO2 RAB44 PNO $
PASD 201853Z 06006KT 5SM BR VCFG BKN003 BKN009 OVC015 11/11 A3013 RMK AO2 VCFG ALQDS VIS SE 9 PNO $
PASD 201822Z VRB03KT 4SM BR VCFG BKN002 OVC008 11/11 A3013 RMK AO2 VCFG ALQDS VIS SE 7 PNO $
PASD 201803Z 00000KT 10SM VCFG OVC008 11/10 A3013 RMK AO2 PNO $
PASD 201753Z 05003KT 4SM BR VCFG BKN002 OVC008 11/10 A3013 RMK AO2 DZE31 VCFG ALQDS VIS SE 7 PNO $
PASD 201752Z 00000KT 4SM BR VCFG BKN002 OVC008 11/10 A3013 RMK AO2 DZE31 VCFG ALQDS PNO $
PASD 201732Z 00000KT 1SM BR VCFG BKN002 OVC008 11/10 A3013 RMK AO2 DZE31 VCFG ALQDS PNO $
PASD 201731Z 08003KT 1SM BR VCFG BKN002 OVC008 11/10 A3013 RMK AO2 DZE31 VCFG ALQDS PNO $
PASD 201730Z 00000KT 5SM -DZ BR SCT003 BKN010 OVC015 11/10 A3013 RMK AO2 BKN002 OVR NW APR PNO $
PASD 201647Z 00000KT 5SM -DZ BR SCT008 BKN016 OVC022 11/10 A3013 RMK AO2 DZB47 BKN004 OVR NW APR PNO $
PASD 201558Z 00000KT 5SM BR SCT008 BKN016 OVC022 11/09 A3013 RMK AO2 BKN004 OVR NW APR PNO $
PASD 201556Z 00000KT 5SM BR SCT008 BKN016 OVC022 11/09 A3013 RMK AO2 RAB04E53 SLP206 BKN004 OVR NW APR T01060094 PNO $
PASD 201553Z 00000KT 5SM BR SCT008 BKN016 OVC022 11/09 A3013 RMK AO2 RAB04E53 BKN004 OVR NW APR PNO $
PASD 201504Z 00000KT 5SM -RA BR SCT008 BKN016 OVC022 11/09 A3013 RMK AO2 RAB04 PNO $
PASD 201456Z AUTO 00000KT 10SM OVC014 11/09 A3013 RMK AO2 RAE15 SLP204 6//// T01060094 58001 PNO $
PASD 201406Z AUTO 00000KT 7SM -RA OVC005 10/09 A3013 RMK AO2 PNO $
PASD 201356Z AUTO 00000KT 5SM -RA BR OVC007 10/09 A3014 RMK AO2 RAB47 CIG 005V009 SLP207 T01000094 PNO $
PASD 201256Z AUTO 00000KT 10SM OVC007 11/10 A3013 RMK AO2 RAE43 SLP205 T01060100 PNO $
PASD 201154Z AUTO 00000KT 3SM -RA BR OVC005 11/10 A3013 RMK AO2 RAE07B47 PNO $
PASD 201147Z AUTO 00000KT 2 1/2SM -RA BR OVC005 11/10 A3013 RMK AO2 VIS 2V4 RAE07B47 PNO $
PASD 201036Z AUTO 00000KT 5SM -RA BR OVC007 11/10 A3013 RMK AO2 CIG 005V010 PNO $
PASD 200856Z AUTO 09007KT 050V130 10SM -RA OVC005 11/10 A3012 RMK AO2 SLP202 6//// T01110100 401170094 51007 PNO $
PASD 200756Z AUTO 07004KT 10SM -RA OVC005 11/10 A3012 RMK AO2 SLP201 T01110100 PNO $
PASD 200743Z AUTO VRB05KT 6SM -RA BR OVC005 11/10 A3011 RMK AO2 PNO $
PASD 200656Z AUTO VRB03KT 8SM -RA OVC007 11/10 A3011 RMK AO2 SLP198 T01060100 PNO $
PASD 200556Z AUTO 06010G16KT 5SM -RA BR BKN007 OVC014 11/10 A3010 RMK AO2 CIG 005V009 SLP195 6//// T01060100 10117 20106 56006 PNO $
PASD 200456Z AUTO 06007KT 5SM -RA BR BKN009 OVC013 11/10 A3010 RMK AO2 CIG 006V011 SLP196 T01060100 PNO $
PASD 200431Z AUTO 06009G15KT 5SM -RA BR OVC011 11/10 A3010 RMK AO2 CIG 006V013 PNO $
PASD 200303Z 06008KT 10SM OVC009 11/09 A3012 RMK AO2 PNO $
PASD 200256Z 07008G14KT 030V150 10SM BKN011 OVC016 11/09 A3012 RMK AO2 SLP201 LAST 6//// T01110094 58006 PNO $
PASD 200252Z 06009G14KT 10SM BKN011 OVC016 11/09 A3012 RMK AO2 LAST PNO $
PASD 200155Z AUTO 07008G16KT 030V130 10SM BKN010 OVC017 11/09 A3012
PASD 200103Z VRB05KT 10SM OVC008 11/09 A3014 RMK AO2 PNO $
PASD 200056Z 07007KT 040V110 10SM FEW008 BKN013 OVC019 11/09 A3014 RMK AO2 DZE42 SLP210 T01110094 PNO $
PASD 200025Z 07008G16KT 10SM -DZ SCT008 BKN013 OVC020 11/09 A3014 RMK AO2 VIS SE-S 3 PNO $
PASD 200017Z 06009G18KT 3SM -DZ BR BKN008 OVC015 11/09 A3014 RMK AO2 VIS SE-S 2 PNO $
PASD 192359Z 07008G16KT 2 1/2SM -DZ BR BKN008 OVC015 11/09 A3014 RMK AO2 VIS SE-S 1 3/4 PNO $
PASD 192356Z 06011G16KT 5SM -DZ BR SCT008 BKN011 OVC016 11/09 A3013 RMK AO2 RAB2258E06DZB06 SLP207 6//// T01060089 10117 20100 58004 PNO $
PASD 192353Z 06010G16KT 5SM -DZ BR SCT008 BKN011 OVC016 11/09 A3013 RMK AO2 RAB2258E06DZB06 PNO $
PASD 192256Z 08010G15KT 9SM FEW008 BKN012 OVC020 11/09 A3014 RMK AO2 DZE53 SLP209 T01060089 PNO $
PASD 192219Z 06009G18KT 8SM -DZ SCT008 BKN012 OVC018 11/09 A3014 RMK AO2 PNO $
PASD 192217Z 07011G18KT 5SM -DZ BR BKN009 OVC018 11/09 A3014 RMK AO2 PNO $
PASD 192214Z 07009G17KT 040V110 2 1/2SM -DZ BR BKN009 OVC018 11/09 A3014 RMK AO2 PNO $
PASD 192156Z VRB06G16KT 1 3/4SM -DZ BR OVC011 11/09 A3014 RMK AO2 DZB16 CIG 009V014 SLP210 T01060094 PNO $
PASD 192129Z 06010KT 2SM -DZ BR OVC011 11/09 A3015 RMK AO2 DZB16 PNO $
PASD 192123Z 07010G15KT 3SM -DZ BR BKN013 OVC024 11/09 A3014 RMK AO2 DZB16 VIS SE-SW 2 PNO $
PASD 192056Z VRB05KT 10SM BKN013 BKN018 OVC025 11/09 A3015 RMK AO2 SLP211 6//// T01110089 53000 PNO $
PASD 191956Z VRB06KT 10SM FEW011 BKN017 OVC026 11/08 A3014 RMK AO2 SLP209 T01110083 PNO $